Pocono Lake, Pennsylvania
Current Conditions -  °F | °C
As of 4:53 AM on Saturday 22 Nov 2014 (Local Time) from KMPO Reporting Station
Clear Clear  
Wind Chill: -9°   Ceiling: Unl
Heat Index: -9°   Visibility: 10mi
Dew Point: -14°   Wind: 3mph
Humidity: 70%   Direction: 310°NW
Pressure: 30.34"   Gusts: NA
Location:  41.09°N, 75.58°W
Report Text: KMPO 220953Z AUTO 31003KT 10SM CLR M09/M14 A3034 RMK AO2 SLP306 T10941139
Loading
Personal Weather Stations






























Interactive Weather Map New forecast layout! Learn more

10-Day Weather Forecast

Advertisements
Track Severe Weather on mobile